Time;durP1;ratioP1;P1;durP2;ratioP2;P2;SDS_P1;SDS_P2;PMS_P1;PMS_P2;Temp;Humidity;BMP_temperature;BMP_pressure;BME280_temperature;BME280_humidity;BME280_pressure;Samples;Min_cycle;Max_cycle;Signal;HPM_P1;HPM_P2
2022/05/27 00:02:17;;;;;;;25.35;5.88;;;13.90;99.90;;;;;;5053070;28;20036;-48
2022/05/27 00:04:42;;;;;;;25.92;5.20;;;13.70;99.90;;;;;;5053361;28;20051;-44
2022/05/27 00:07:10;;;;;;;23.00;4.85;;;13.50;99.90;;;;;;5053903;28;20080;-44
2022/05/27 00:09:36;;;;;;;24.52;4.70;;;13.60;99.90;;;;;;5054241;28;20048;-43
2022/05/27 00:12:02;;;;;;;27.25;5.10;;;13.70;99.90;;;;;;5052535;28;20044;-47
2022/05/27 00:14:28;;;;;;;20.73;4.50;;;15.70;99.90;;;;;;5051775;28;20040;-45
2022/05/27 00:16:54;;;;;;;16.73;3.50;;;14.30;99.90;;;;;;5052322;28;20037;-44
2022/05/27 00:19:20;;;;;;;23.55;5.15;;;13.80;99.90;;;;;;5052572;28;20089;-44
2022/05/27 00:21:47;;;;;;;21.65;3.70;;;13.60;99.90;;;;;;5052103;28;20619;-43
2022/05/27 00:24:15;;;;;;;21.50;4.32;;;13.80;99.90;;;;;;5050803;28;20041;-43
2022/05/27 00:26:41;;;;;;;18.90;3.60;;;13.70;99.90;;;;;;5052980;28;20469;-45
2022/05/27 00:29:06;;;;;;;15.45;3.63;;;13.40;99.90;;;;;;5052093;28;20110;-46
2022/05/27 00:31:32;;;;;;;15.55;3.53;;;14.00;99.90;;;;;;5052049;28;20048;-44
2022/05/27 00:33:58;;;;;;;19.02;3.85;;;13.50;99.90;;;;;;5051487;28;20041;-42
2022/05/27 00:36:24;;;;;;;19.35;4.10;;;13.40;99.90;;;;;;5050955;28;20037;-42
2022/05/27 00:38:50;;;;;;;12.65;3.15;;;13.30;99.90;;;;;;5046880;28;20114;-41
2022/05/27 00:41:16;;;;;;;14.88;3.30;;;13.40;99.90;;;;;;5051591;28;20087;-44
2022/05/27 00:43:42;;;;;;;20.75;4.60;;;13.30;99.90;;;;;;5052671;28;20151;-46
2022/05/27 00:46:17;;;;;;;17.17;3.20;;;13.40;99.90;;;;;;5055509;28;20053;-42
2022/05/27 00:48:45;;;;;;;16.48;3.83;;;13.30;99.90;;;;;;5055523;28;20082;-43
2022/05/27 00:51:19;;;;;;;19.45;3.78;;;13.00;99.90;;;;;;5054362;28;20401;-45
2022/05/27 00:53:55;;;;;;;16.55;3.53;;;13.20;99.90;;;;;;5055592;28;20119;-42
2022/05/27 00:56:25;;;;;;;14.07;3.22;;;13.80;99.90;;;;;;5054430;28;20412;-41
2022/05/27 00:58:56;;;;;;;16.20;3.53;;;12.90;99.90;;;;;;5055805;28;20086;-43
2022/05/27 01:01:22;;;;;;;17.30;3.08;;;14.00;99.90;;;;;;5055080;28;20115;-42
2022/05/27 01:03:49;;;;;;;19.92;3.83;;;14.40;99.90;;;;;;5055062;28;20094;-43
2022/05/27 01:06:15;;;;;;;16.25;3.22;;;14.00;99.90;;;;;;5056482;28;20044;-42
2022/05/27 01:08:42;;;;;;;18.13;3.33;;;14.30;99.90;;;;;;5056344;28;20036;-44
2022/05/27 01:11:28;;;;;;;18.17;3.55;;;13.20;99.90;;;;;;5056467;28;20048;-44
2022/05/27 01:14:02;;;;;;;19.45;5.55;;;13.30;99.90;;;;;;5055086;28;20047;-44
2022/05/27 01:16:35;;;;;;;16.13;3.53;;;12.80;99.90;;;;;;5056678;28;20082;-43
2022/05/27 01:22:41;;;;;;;20.45;3.33;;;12.70;99.90;;;;;;5054153;28;20131;-44
2022/05/27 01:25:25;;;;;;;16.42;2.75;;;12.60;99.90;;;;;;5051075;28;20119;-47
2022/05/27 01:28:26;;;;;;;24.27;3.50;;;14.40;99.90;;;;;;5052847;28;20359;-42
2022/05/27 01:31:15;;;;;;;18.60;3.22;;;12.50;99.90;;;;;;4953297;28;20125;-44
2022/05/27 01:33:59;;;;;;;16.27;3.42;;;12.50;99.90;;;;;;4953414;28;20070;-44
2022/05/27 01:36:56;;;;;;;16.08;2.78;;;12.60;99.90;;;;;;4953925;28;20490;-45
2022/05/27 01:39:31;;;;;;;21.73;3.15;;;12.30;99.90;;;;;;4935749;28;20168;-46
2022/05/27 01:42:00;;;;;;;23.00;2.90;;;12.30;99.90;;;;;;4936609;28;20667;-46
2022/05/27 01:45:13;;;;;;;13.40;3.20;;;14.30;99.90;;;;;;4934031;28;20142;-42
2022/05/27 01:48:03;;;;;;;15.68;3.15;;;12.30;99.90;;;;;;4879820;29;20063;-45
2022/05/27 01:51:03;;;;;;;10.68;2.47;;;12.00;99.90;;;;;;4879982;29;20053;-44
2022/05/27 01:53:54;;;;;;;15.98;2.80;;;12.20;99.90;;;;;;4854478;29;20056;-45
2022/05/27 01:56:42;;;;;;;16.30;3.03;;;13.00;99.90;;;;;;4852965;29;20151;-45
2022/05/27 01:59:51;;;;;;;18.67;3.45;;;12.20;99.90;;;;;;4854652;29;20201;-45
2022/05/27 02:02:30;;;;;;;19.13;3.20;;;12.20;99.90;;;;;;4815669;29;20062;-47
2022/05/27 02:05:17;;;;;;;12.40;2.25;;;12.30;99.90;;;;;;4831637;29;20738;-46
2022/05/27 02:08:00;;;;;;;15.07;3.25;;;12.10;99.90;;;;;;4839518;29;20888;-46
2022/05/27 02:11:04;;;;;;;13.90;2.70;;;11.90;99.90;;;;;;4829120;29;20162;-46
2022/05/27 02:13:54;;;;;;;13.50;2.70;;;11.90;99.90;;;;;;4839062;29;20755;-45
2022/05/27 02:16:39;;;;;;;16.70;3.35;;;12.00;99.90;;;;;;4822034;29;20066;-43
2022/05/27 02:19:16;;;;;;;14.38;2.95;;;11.70;99.90;;;;;;4822439;29;20197;-45
2022/05/27 02:21:53;;;;;;;11.70;2.42;;;11.70;99.90;;;;;;4821843;29;20515;-46
2022/05/27 02:24:27;;;;;;;16.52;2.80;;;11.80;99.90;;;;;;4896694;29;20055;-42
2022/05/27 02:27:02;;;;;;;18.05;3.10;;;11.80;99.90;;;;;;4917996;29;20051;-42
2022/05/27 02:29:30;;;;;;;15.25;3.33;;;11.50;99.90;;;;;;4935783;28;20102;-43
2022/05/27 02:32:05;;;;;;;15.55;3.05;;;12.20;99.90;;;;;;4973256;28;20220;-46
2022/05/27 02:37:30;;;;;;;18.40;3.72;;;12.90;99.90;;;;;;4972050;28;20080;-45
2022/05/27 02:39:59;;;;;;;13.63;3.63;;;11.60;99.90;;;;;;4973504;28;20039;-45
2022/05/27 02:43:06;;;;;;;17.95;2.78;;;11.50;99.90;;;;;;4971545;28;20419;-47
2022/05/27 02:45:45;;;;;;;18.25;3.03;;;11.40;99.90;;;;;;4894578;29;20226;-46
2022/05/27 02:48:26;;;;;;;17.85;3.05;;;11.30;99.90;;;;;;4895477;29;20044;-45
2022/05/27 02:51:04;;;;;;;15.52;3.58;;;11.50;99.90;;;;;;4900373;29;20052;-45
2022/05/27 02:54:00;;;;;;;15.30;3.22;;;11.40;99.90;;;;;;4944610;28;20200;-47
2022/05/27 02:56:29;;;;;;;15.30;3.40;;;11.50;99.90;;;;;;4980974;28;20672;-43
2022/05/27 02:58:55;;;;;;;16.23;3.08;;;12.00;99.90;;;;;;4982327;28;20622;-44
2022/05/27 03:01:23;;;;;;;13.40;3.00;;;11.00;99.90;;;;;;4984675;28;20040;-46
2022/05/27 03:03:49;;;;;;;18.90;3.10;;;11.20;99.90;;;;;;4976082;28;20074;-46
2022/05/27 03:06:27;;;;;;;19.13;3.08;;;11.20;99.90;;;;;;4979403;28;20061;-42
2022/05/27 03:09:14;;;;;;;15.10;2.80;;;11.10;99.90;;;;;;4966376;28;20137;-43
2022/05/27 03:12:13;;;;;;;15.82;2.95;;;11.00;99.90;;;;;;4957368;28;20042;-44
2022/05/27 03:15:07;;;;;;;16.83;3.40;;;11.50;99.90;;;;;;4936912;28;21782;-45
2022/05/27 03:17:49;;;;;;;21.20;4.15;;;11.10;99.90;;;;;;4937222;28;20046;-46
2022/05/27 03:20:30;;;;;;;17.60;3.60;;;11.00;99.90;;;;;;4934241;28;20183;-43
2022/05/27 03:23:29;;;;;;;23.77;3.55;;;11.10;99.90;;;;;;5005729;28;20086;-48
2022/05/27 03:26:10;;;;;;;16.08;4.10;;;11.00;99.90;;;;;;5026795;28;20080;-47
2022/05/27 03:28:47;;;;;;;18.48;4.50;;;11.00;99.90;;;;;;5024966;28;20134;-42
2022/05/27 03:31:39;;;;;;;13.50;3.10;;;11.10;99.90;;;;;;5028369;28;20053;-43
2022/05/27 03:34:08;;;;;;;;;;;10.80;99.90;;;;;;5026022;28;20087;-42
2022/05/27 03:37:02;;;;;;;13.80;3.17;;;10.70;99.90;;;;;;5027175;28;19928;-43
2022/05/27 03:39:52;;;;;;;17.85;4.07;;;11.10;99.90;;;;;;5024974;28;20144;-42
2022/05/27 03:42:19;;;;;;;19.13;3.33;;;10.80;99.90;;;;;;5024794;28;20421;-42
2022/05/27 03:44:50;;;;;;;17.48;3.33;;;10.90;99.90;;;;;;5025369;28;20063;-42
2022/05/27 03:47:16;;;;;;;16.98;3.00;;;10.80;99.90;;;;;;5027029;28;20522;-43
2022/05/27 03:49:42;;;;;;;22.33;4.07;;;11.80;99.90;;;;;;5026583;28;20168;-42
2022/05/27 03:52:18;;;;;;;13.05;3.03;;;10.90;99.90;;;;;;5050096;28;20048;-43
2022/05/27 03:54:44;;;;;;;11.93;2.85;;;11.00;99.90;;;;;;5052999;28;20050;-43
2022/05/27 03:57:12;;;;;;;12.52;3.25;;;11.00;99.90;;;;;;5052526;28;20040;-44
2022/05/27 03:59:38;;;;;;;20.35;4.07;;;11.00;99.90;;;;;;5051150;28;20033;-44
2022/05/27 04:02:04;;;;;;;14.48;3.30;;;11.20;99.90;;;;;;5051508;28;20035;-46
2022/05/27 04:04:32;;;;;;;13.18;2.90;;;11.30;99.90;;;;;;5052958;28;20424;-41
2022/05/27 04:06:57;;;;;;;14.05;3.00;;;11.90;99.90;;;;;;5052693;28;20566;-42
2022/05/27 04:09:25;;;;;;;18.77;3.38;;;11.10;99.90;;;;;;5053163;28;20245;-42
2022/05/27 04:11:53;;;;;;;19.90;4.32;;;11.30;99.90;;;;;;5052223;28;20056;-42
2022/05/27 04:14:19;;;;;;;15.38;2.90;;;11.30;99.90;;;;;;5052555;28;20044;-43
2022/05/27 04:16:48;;;;;;;21.48;3.55;;;11.30;99.90;;;;;;5052457;28;20124;-42
2022/05/27 04:19:15;;;;;;;16.58;3.53;;;13.00;99.90;;;;;;5053611;28;20159;-42
2022/05/27 04:21:40;;;;;;;23.95;3.92;;;11.20;99.90;;;;;;5057378;28;20040;-42
2022/05/27 04:24:07;;;;;;;17.83;3.50;;;11.50;99.90;;;;;;5056016;28;21088;-44
2022/05/27 04:26:33;;;;;;;17.92;3.00;;;11.60;99.90;;;;;;5056056;28;20051;-44
2022/05/27 04:29:00;;;;;;;18.27;3.40;;;11.60;99.90;;;;;;5056523;28;20090;-42
2022/05/27 04:31:26;;;;;;;16.75;3.30;;;12.60;99.90;;;;;;5056894;28;20040;-42
2022/05/27 04:33:52;;;;;;;16.73;2.85;;;11.80;99.90;;;;;;5056061;28;20051;-44
2022/05/27 04:36:18;;;;;;;17.98;3.15;;;13.10;99.90;;;;;;5054967;28;20052;-42
2022/05/27 04:38:44;;;;;;;17.27;2.28;;;12.30;99.90;;;;;;5055063;28;20044;-46
2022/05/27 04:41:09;;;;;;;16.55;3.10;;;12.70;99.90;;;;;;5055275;28;20083;-43
2022/05/27 04:43:37;;;;;;;13.45;2.85;;;12.10;99.90;;;;;;5057163;28;20780;-44
2022/05/27 04:46:03;;;;;;;18.48;3.30;;;12.10;99.90;;;;;;5055724;28;20078;-43
2022/05/27 04:48:29;;;;;;;20.05;3.33;;;12.70;99.90;;;;;;5056097;28;20596;-43
2022/05/27 04:50:58;;;;;;;14.30;2.80;;;13.00;99.90;;;;;;5055255;28;20032;-42
2022/05/27 04:53:24;;;;;;;13.05;2.28;;;13.40;99.90;;;;;;5055877;28;20052;-44
2022/05/27 04:55:50;;;;;;;16.00;2.63;;;12.50;99.90;;;;;;5056240;28;20051;-45
2022/05/27 04:58:15;;;;;;;16.65;2.55;;;12.00;99.90;;;;;;5054826;28;20061;-42
2022/05/27 05:00:44;;;;;;;19.15;3.25;;;12.90;99.90;;;;;;5057362;28;20678;-42
2022/05/27 05:03:11;;;;;;;12.20;2.95;;;11.80;99.90;;;;;;5056004;28;20032;-44
2022/05/27 05:05:39;;;;;;;17.35;2.72;;;13.80;99.90;;;;;;5054308;28;20551;-42
2022/05/27 05:08:22;;;;;;;16.98;2.70;;;11.80;99.90;;;;;;5055670;28;20036;-42
2022/05/27 05:10:52;;;;;;;16.20;2.97;;;11.80;99.90;;;;;;5056900;28;20635;-42
2022/05/27 05:13:17;;;;;;;13.88;3.08;;;11.80;99.90;;;;;;5055319;28;20054;-42
2022/05/27 05:15:43;;;;;;;19.35;2.80;;;11.70;99.90;;;;;;5054827;28;20040;-46
2022/05/27 05:18:11;;;;;;;12.10;2.92;;;11.90;99.90;;;;;;5055710;28;20405;-44
2022/05/27 05:20:36;;;;;;;16.17;2.63;;;11.80;99.90;;;;;;5054428;28;20043;-42
2022/05/27 05:23:02;;;;;;;12.93;2.83;;;13.10;99.90;;;;;;5055711;28;20408;-43
2022/05/27 05:25:28;;;;;;;17.65;2.97;;;11.70;99.90;;;;;;5055697;28;20036;-43
2022/05/27 05:27:54;;;;;;;16.90;2.53;;;11.70;99.90;;;;;;5055166;28;20711;-43
2022/05/27 05:30:23;;;;;;;14.57;3.35;;;12.50;99.90;;;;;;5054382;28;20040;-42
2022/05/27 05:32:49;;;;;;;15.63;2.53;;;12.60;99.90;;;;;;5054959;28;20040;-43
2022/05/27 05:35:15;;;;;;;12.48;2.38;;;12.40;99.90;;;;;;5052408;28;20036;-43
2022/05/27 05:37:41;;;;;;;10.55;2.75;;;12.50;99.90;;;;;;5054786;28;20085;-44
2022/05/27 05:40:10;;;;;;;18.00;2.80;;;12.50;99.90;;;;;;5054235;28;20504;-42
2022/05/27 05:42:36;;;;;;;17.83;2.72;;;12.10;99.90;;;;;;5054997;28;20720;-42
2022/05/27 05:45:02;;;;;;;18.80;2.75;;;12.30;99.90;;;;;;5055493;28;20469;-45
2022/05/27 05:47:28;;;;;;;16.83;2.85;;;12.70;99.90;;;;;;5052770;28;20072;-44
2022/05/27 05:49:53;;;;;;;18.77;3.30;;;12.70;99.90;;;;;;5054986;28;20060;-44
2022/05/27 05:52:21;;;;;;;13.65;3.10;;;13.90;99.90;;;;;;5055259;28;20689;-49
2022/05/27 05:54:47;;;;;;;14.93;2.95;;;13.70;99.90;;;;;;5055983;28;20106;-42
2022/05/27 05:57:13;;;;;;;20.80;3.72;;;14.00;99.90;;;;;;5054373;28;20040;-42
2022/05/27 05:59:38;;;;;;;14.55;3.10;;;13.20;99.90;;;;;;5054672;28;20039;-43
2022/05/27 06:02:07;;;;;;;15.52;3.70;;;13.20;99.90;;;;;;5055399;28;20036;-42
2022/05/27 06:04:33;;;;;;;19.90;3.25;;;13.30;99.90;;;;;;5056196;28;20040;-42
2022/05/27 06:06:59;;;;;;;12.02;2.50;;;14.20;99.90;;;;;;5055263;28;20310;-46
2022/05/27 06:09:27;;;;;;;17.15;2.95;;;13.60;99.90;;;;;;5054119;28;20228;-42
2022/05/27 06:11:54;;;;;;;15.15;2.88;;;13.80;99.90;;;;;;5055284;28;20085;-45
2022/05/27 06:14:20;;;;;;;17.58;3.17;;;14.40;99.90;;;;;;5055165;28;20047;-44
2022/05/27 06:16:46;;;;;;;12.65;2.83;;;14.30;99.90;;;;;;5054891;28;20041;-43
2022/05/27 06:19:12;;;;;;;13.90;3.30;;;15.20;99.90;;;;;;5053758;28;20550;-46
2022/05/27 06:21:37;;;;;;;24.77;3.30;;;15.90;99.90;;;;;;5055435;28;20121;-44
2022/05/27 06:24:03;;;;;;;11.30;2.85;;;15.00;99.90;;;;;;5053230;28;20044;-46
2022/05/27 06:26:31;;;;;;;14.25;2.72;;;15.40;99.90;;;;;;5053692;28;20889;-42
2022/05/27 06:34:26;;;;;;;15.07;3.20;;;15.30;99.90;;;;;;5053908;28;20190;-42
2022/05/27 06:37:01;;;;;;;15.93;3.00;;;15.00;99.90;;;;;;5053456;28;20437;-45
2022/05/27 06:39:28;;;;;;;13.50;2.75;;;15.00;99.90;;;;;;5052989;28;20056;-41
2022/05/27 06:41:54;;;;;;;13.07;2.60;;;14.80;99.90;;;;;;5053486;28;20037;-45
2022/05/27 06:44:21;;;;;;;14.88;3.00;;;14.70;99.90;;;;;;5053317;28;20649;-42
2022/05/27 06:46:50;;;;;;;15.05;2.92;;;14.80;99.90;;;;;;5052050;28;20041;-43
2022/05/27 06:49:17;;;;;;;14.57;2.58;;;15.00;99.90;;;;;;5053347;28;20028;-45
2022/05/27 06:51:45;;;;;;;16.02;3.00;;;17.10;99.90;;;;;;5053292;28;20048;-45
2022/05/27 06:54:11;;;;;;;15.07;3.10;;;18.50;99.90;;;;;;5051219;28;20044;-46
2022/05/27 06:56:40;;;;;;;16.25;2.97;;;17.10;99.90;;;;;;5052875;28;20082;-47
2022/05/27 06:59:07;;;;;;;11.52;2.45;;;17.80;99.90;;;;;;5053364;28;20033;-44
2022/05/27 07:01:35;;;;;;;19.75;2.88;;;17.40;99.90;;;;;;5052369;28;20036;-44
2022/05/27 07:04:01;;;;;;;12.23;2.63;;;19.40;99.90;;;;;;5051299;28;20599;-44
2022/05/27 07:06:31;;;;;;;17.50;3.10;;;18.80;99.90;;;;;;5053664;28;20072;-42
2022/05/27 07:08:59;;;;;;;11.18;2.38;;;19.00;99.90;;;;;;5051897;28;20055;-43
2022/05/27 07:11:25;;;;;;;15.07;2.92;;;19.30;99.90;;;;;;5053943;28;20042;-45
2022/05/27 07:13:50;;;;;;;14.50;2.72;;;18.70;99.90;;;;;;5053342;28;20036;-44
2022/05/27 07:16:18;;;;;;;13.52;2.85;;;17.70;99.90;;;;;;5052051;28;20439;-43
2022/05/27 07:18:44;;;;;;;14.88;3.58;;;17.20;99.90;;;;;;5052205;28;20040;-45
2022/05/27 07:21:10;;;;;;;11.20;2.70;;;16.90;99.90;;;;;;5053264;28;22231;-44
2022/05/27 07:23:37;;;;;;;19.52;2.97;;;18.30;99.90;;;;;;5053290;28;20041;-45
2022/05/27 07:26:03;;;;;;;13.05;2.85;;;18.80;99.90;;;;;;5053580;28;20424;-43
2022/05/27 07:28:29;;;;;;;11.43;2.47;;;19.50;99.90;;;;;;5052712;28;20040;-44
2022/05/27 07:30:56;;;;;;;12.80;2.53;;;20.10;99.90;;;;;;5053904;28;20079;-46
2022/05/27 07:33:22;;;;;;;12.75;3.03;;;20.90;99.90;;;;;;5047846;28;20033;-44
2022/05/27 07:35:48;;;;;;;10.07;2.55;;;21.60;99.90;;;;;;5051935;28;20576;-45
2022/05/27 07:38:15;;;;;;;9.43;2.90;;;21.70;99.90;;;;;;5052212;28;20752;-45
2022/05/27 07:40:41;;;;;;;140.43;66.45;;;22.20;99.90;;;;;;5054069;28;20123;-46
2022/05/27 07:43:08;;;;;;;324.65;176.15;;;21.60;98.00;;;;;;5052836;28;20122;-45
2022/05/27 07:45:37;;;;;;;1939.85;917.15;;;21.90;98.50;;;;;;5053138;28;20565;-45
2022/05/27 07:48:06;;;;;;;1977.65;984.10;;;22.10;98.50;;;;;;5052717;28;20050;-46
2022/05/27 07:50:31;;;;;;;1999.90;999.90;;;22.30;97.40;;;;;;5053185;28;20390;-43
2022/05/27 07:52:57;;;;;;;1260.65;801.90;;;21.50;97.10;;;;;;5054020;28;20318;-44
2022/05/27 07:55:25;;;;;;;792.65;711.33;;;20.80;98.40;;;;;;5051829;28;20080;-44
2022/05/27 07:57:51;;;;;;;977.25;818.10;;;20.30;99.90;;;;;;5051288;28;20079;-43
2022/05/27 08:00:20;;;;;;;1214.22;864.42;;;19.00;99.90;;;;;;5051893;28;20040;-44
2022/05/27 08:02:46;;;;;;;1176.97;788.50;;;18.10;99.90;;;;;;5085044;28;20067;-44
2022/05/27 08:05:16;;;;;;;711.67;640.28;;;18.40;99.90;;;;;;5052751;28;20540;-43
2022/05/27 08:07:42;;;;;;;759.53;679.38;;;19.10;99.90;;;;;;5052633;28;20060;-42
2022/05/27 08:10:09;;;;;;;739.50;669.80;;;16.90;99.90;;;;;;5052616;28;20131;-43
2022/05/27 08:12:35;;;;;;;829.20;733.47;;;17.20;99.90;;;;;;5052749;28;20268;-46
2022/05/27 08:15:01;;;;;;;991.22;779.17;;;18.70;99.90;;;;;;5052139;28;21023;-43
2022/05/27 08:17:26;;;;;;;1063.07;793.60;;;17.90;99.90;;;;;;5051916;28;20045;-47
2022/05/27 08:19:54;;;;;;;757.05;682.65;;;17.50;99.90;;;;;;5051284;28;20051;-46
2022/05/27 08:22:20;;;;;;;1002.30;782.88;;;19.90;99.90;;;;;;5050345;28;20583;-48
2022/05/27 08:24:46;;;;;;;808.42;724.83;;;20.40;99.90;;;;;;5051737;28;20041;-45
2022/05/27 08:27:13;;;;;;;1106.25;788.08;;;18.80;99.90;;;;;;5052634;28;20446;-43
2022/05/27 08:29:39;;;;;;;656.28;596.53;;;18.60;99.90;;;;;;5051233;28;20028;-46
2022/05/27 08:32:05;;;;;;;1512.28;933.28;;;18.60;99.90;;;;;;5051187;28;20051;-49
2022/05/27 08:40:26;;;;;;;1303.20;848.90;;;19.50;99.90;;;;;;5051542;28;20091;-43
2022/05/27 08:43:13;;;;;;;880.65;788.25;;;18.60;99.90;;;;;;5030706;28;20132;-45
2022/05/27 08:46:08;;;;;;;1049.13;757.45;;;18.90;99.90;;;;;;5028392;28;20044;-46
2022/05/27 08:48:38;;;;;;;1211.72;874.67;;;19.10;99.90;;;;;;5029682;28;20185;-45
2022/05/27 08:51:14;;;;;;;1045.45;807.20;;;20.20;99.90;;;;;;5029770;28;20362;-45
2022/05/27 08:54:06;;;;;;;938.88;789.25;;;20.30;99.90;;;;;;4999925;28;20649;-44
2022/05/27 08:59:28;;;;;;;1120.65;798.95;;;19.30;99.90;;;;;;5028173;28;20350;-47
2022/05/27 09:02:26;;;;;;;1051.50;785.30;;;18.80;99.90;;;;;;5028714;28;20060;-45
2022/05/27 09:05:14;;;;;;;1248.22;845.78;;;19.00;99.90;;;;;;4951417;28;20137;-45
2022/05/27 09:07:58;;;;;;;895.85;750.40;;;18.80;99.90;;;;;;4954683;28;20440;-47
2022/05/27 09:10:59;;;;;;;1009.17;696.45;;;17.70;99.90;;;;;;4952837;28;20134;-46
2022/05/27 09:13:48;;;;;;;739.20;661.35;;;17.80;99.90;;;;;;4954884;28;20439;-47
2022/05/27 09:16:38;;;;;;;841.80;617.03;;;17.80;99.90;;;;;;4952651;28;20050;-47
2022/05/27 09:19:28;;;;;;;735.88;639.67;;;18.10;99.90;;;;;;4955665;28;20381;-48
2022/05/27 09:22:24;;;;;;;856.65;757.58;;;18.20;99.90;;;;;;4972823;28;20055;-46
2022/05/27 09:25:01;;;;;;;676.33;614.00;;;17.60;99.90;;;;;;4972731;28;20206;-47
2022/05/27 09:27:44;;;;;;;789.90;712.40;;;17.10;99.90;;;;;;4973874;28;20045;-45
2022/05/27 09:30:16;;;;;;;853.80;769.65;;;17.10;99.90;;;;;;4971920;28;20264;-43
2022/05/27 09:32:50;;;;;;;493.85;456.83;;;18.60;99.90;;;;;;4972218;28;20887;-44
2022/05/27 09:35:31;;;;;;;515.17;474.40;;;17.20;99.90;;;;;;4972240;28;20050;-46
2022/05/27 09:38:01;;;;;;;568.28;522.38;;;17.20;99.90;;;;;;4972443;28;20082;-49
2022/05/27 09:40:36;;;;;;;345.45;320.83;;;17.00;99.90;;;;;;4973564;28;20069;-44
2022/05/27 09:43:28;;;;;;;871.08;778.33;;;16.80;99.90;;;;;;5054822;28;20221;-46
2022/05/27 09:46:04;;;;;;;660.75;609.63;;;16.80;99.90;;;;;;5054839;28;20033;-44
2022/05/27 09:48:30;;;;;;;629.88;575.70;;;17.00;99.90;;;;;;5054208;28;20229;-45
2022/05/27 09:51:00;;;;;;;1005.60;746.95;;;18.50;99.90;;;;;;5053225;28;20392;-44
2022/05/27 09:53:39;;;;;;;912.83;774.15;;;15.90;99.90;;;;;;5053061;28;20111;-42
2022/05/27 09:56:09;;;;;;;1515.25;673.38;;;16.60;99.90;;;;;;5055902;28;20420;-47
2022/05/27 09:58:40;;;;;;;673.25;369.27;;;16.10;99.90;;;;;;5054166;28;20791;-45
2022/05/27 10:01:27;;;;;;;20.17;4.20;;;16.50;99.90;;;;;;5055199;28;20040;-43
2022/05/27 10:04:00;;;;;;;14.02;2.97;;;17.90;99.90;;;;;;5054801;28;20051;-46
2022/05/27 10:06:29;;;;;;;11.82;2.50;;;18.80;99.90;;;;;;5053848;28;20509;-44
2022/05/27 10:08:57;;;;;;;12.60;2.55;;;17.30;99.90;;;;;;5053884;28;20040;-45
2022/05/27 10:11:31;;;;;;;11.45;2.42;;;17.30;99.90;;;;;;5055102;28;20105;-44
2022/05/27 10:14:10;;;;;;;12.18;2.22;;;17.00;99.90;;;;;;5056213;28;20040;-49
2022/05/27 10:16:39;;;;;;;14.25;3.00;;;16.80;99.90;;;;;;5054346;28;20078;-45
2022/05/27 10:19:13;;;;;;;18.30;3.30;;;16.80;99.90;;;;;;5052864;28;20308;-44
2022/05/27 10:22:00;;;;;;;12.90;2.92;;;16.90;99.90;;;;;;5055294;28;20573;-45
2022/05/27 10:24:26;;;;;;;17.15;2.88;;;17.00;99.90;;;;;;5053303;28;20032;-46
2022/05/27 10:27:17;;;;;;;14.25;2.83;;;16.90;99.90;;;;;;5054241;28;20044;-44
2022/05/27 10:30:00;;;;;;;15.33;2.53;;;17.10;99.90;;;;;;4986733;28;20388;-43
2022/05/27 10:32:32;;;;;;;12.15;2.88;;;18.10;99.90;;;;;;4991908;28;20538;-48
2022/05/27 10:35:07;;;;;;;13.52;2.70;;;16.70;99.90;;;;;;4990791;28;20056;-47
2022/05/27 10:37:40;;;;;;;13.95;2.83;;;16.00;99.90;;;;;;4989219;28;20510;-43
2022/05/27 10:40:20;;;;;;;13.73;2.63;;;16.10;99.90;;;;;;4985119;28;20050;-45
2022/05/27 10:43:18;;;;;;;16.67;2.78;;;17.10;99.90;;;;;;4990001;28;20088;-45
2022/05/27 10:45:50;;;;;;;13.55;2.83;;;17.00;99.90;;;;;;4987227;28;20625;-45
2022/05/27 10:48:26;;;;;;;12.55;2.75;;;17.00;99.90;;;;;;4985370;28;20045;-44
2022/05/27 10:51:33;;;;;;;13.40;2.80;;;18.00;99.90;;;;;;4989069;28;20053;-48
2022/05/27 10:54:17;;;;;;;11.88;2.35;;;16.20;99.90;;;;;;4986736;28;20053;-46
2022/05/27 11:03:24;;;;;;;20.95;3.38;;;16.30;99.90;;;;;;4932423;28;21441;-44
2022/05/27 11:06:03;;;;;;;17.20;2.85;;;16.20;99.90;;;;;;4934108;28;20045;-46
2022/05/27 11:08:33;;;;;;;12.27;2.40;;;16.60;99.90;;;;;;4950744;28;20039;-47
2022/05/27 11:11:35;;;;;;;16.15;3.05;;;16.90;99.90;;;;;;4950916;28;20575;-48
2022/05/27 11:17:01;;;;;;;15.00;3.08;;;17.20;99.90;;;;;;4952000;28;20050;-46
2022/05/27 11:19:48;;;;;;;12.30;2.38;;;17.20;99.90;;;;;;4951342;28;20058;-43
2022/05/27 11:22:26;;;;;;;17.13;2.85;;;16.90;99.90;;;;;;4952890;28;20049;-46
2022/05/27 11:25:15;;;;;;;13.68;2.78;;;17.00;99.90;;;;;;4951716;28;20047;-46
2022/05/27 11:28:17;;;;;;;13.40;2.72;;;16.80;99.90;;;;;;4950532;28;20034;-47
2022/05/27 11:31:05;;;;;;;14.50;2.78;;;16.40;99.90;;;;;;4951950;28;20152;-45
2022/05/27 11:33:50;;;;;;;10.77;3.00;;;16.20;99.90;;;;;;4951740;28;20197;-45
2022/05/27 11:36:34;;;;;;;18.67;3.08;;;16.00;99.90;;;;;;5009491;28;20483;-43
2022/05/27 11:39:32;;;;;;;16.75;3.67;;;15.90;99.90;;;;;;5051022;28;20047;-46
2022/05/27 11:42:24;;;;;;;16.67;2.25;;;15.60;99.90;;;;;;5052713;28;20416;-46
2022/05/27 11:44:57;;;;;;;;;;;15.50;99.90;;;;;;5053353;28;20083;-48
2022/05/27 11:47:46;;;;;;;16.50;2.78;;;17.00;99.90;;;;;;5053323;28;20418;-49
2022/05/27 11:50:12;;;;;;;15.60;2.60;;;15.20;99.90;;;;;;5052218;28;20501;-43
2022/05/27 11:53:09;;;;;;;12.98;2.65;;;17.20;99.90;;;;;;5051360;28;20033;-45
2022/05/27 11:55:59;;;;;;;13.10;2.78;;;15.80;99.90;;;;;;5050523;28;20600;-47
2022/05/27 11:58:37;;;;;;;16.08;2.40;;;15.20;99.90;;;;;;5048583;28;20040;-46
2022/05/27 12:01:07;;;;;;;16.27;3.08;;;15.50;99.90;;;;;;5048927;28;20474;-45
2022/05/27 12:03:58;;;;;;;13.73;3.05;;;15.90;99.90;;;;;;5050092;28;20341;-48
2022/05/27 12:06:55;;;;;;;14.60;3.22;;;14.70;99.90;;;;;;5050297;28;20059;-45
2022/05/27 12:09:44;;;;;;;18.20;2.50;;;15.90;99.90;;;;;;5048547;28;20198;-43
2022/05/27 12:12:31;;;;;;;13.68;2.70;;;15.70;99.90;;;;;;5032346;28;20070;-44
2022/05/27 12:15:05;;;;;;;19.40;3.50;;;15.40;99.90;;;;;;5051068;28;20075;-48
2022/05/27 12:17:38;;;;;;;19.85;4.70;;;15.30;99.90;;;;;;5048031;28;21963;-46
2022/05/27 12:20:04;;;;;;;18.48;2.70;;;15.30;99.90;;;;;;5047978;28;20043;-43
2022/05/27 12:22:33;;;;;;;16.92;2.58;;;15.00;99.90;;;;;;5032304;28;20048;-44
2022/05/27 12:25:10;;;;;;;15.32;3.00;;;16.60;99.90;;;;;;5049467;28;20060;-46
2022/05/27 12:27:36;;;;;;;15.35;4.00;;;14.90;99.90;;;;;;5047724;28;20045;-44
2022/05/27 12:30:05;;;;;;;13.75;3.10;;;15.30;99.90;;;;;;5048872;28;20040;-46
2022/05/27 12:32:31;;;;;;;13.18;2.83;;;15.30;99.90;;;;;;5052326;28;20067;-45
2022/05/27 12:35:54;;;;;;;14.77;3.00;;;15.60;99.90;;;;;;5051757;28;20044;-45
2022/05/27 12:38:28;;;;;;;15.00;3.17;;;15.60;99.90;;;;;;5048185;28;20040;-46
2022/05/27 12:41:08;;;;;;;17.13;3.13;;;15.90;99.90;;;;;;5051278;28;20052;-44
2022/05/27 12:43:37;;;;;;;16.13;3.55;;;15.80;99.90;;;;;;5052683;28;20049;-46
2022/05/27 12:46:03;;;;;;;14.82;2.58;;;16.50;99.90;;;;;;5053780;28;20063;-45
2022/05/27 12:48:44;;;;;;;16.25;3.10;;;17.50;99.90;;;;;;5052612;28;20033;-44
2022/05/27 12:51:15;;;;;;;10.20;2.20;;;17.20;99.90;;;;;;5052119;28;20128;-48
2022/05/27 12:53:51;;;;;;;14.57;2.90;;;15.40;99.90;;;;;;5053346;28;20119;-46
2022/05/27 13:02:33;;;;;;;12.68;2.75;;;15.60;99.90;;;;;;4992609;28;20160;-45
2022/05/27 13:05:05;;;;;;;18.17;2.80;;;15.20;99.90;;;;;;4991375;28;20132;-45
2022/05/27 13:07:35;;;;;;;18.05;3.20;;;15.20;99.90;;;;;;4973893;28;20691;-44
2022/05/27 13:10:18;;;;;;;18.20;3.20;;;16.00;99.90;;;;;;4992543;28;20046;-46
2022/05/27 13:12:47;;;;;;;16.45;3.13;;;15.10;99.90;;;;;;4992915;28;20529;-45
2022/05/27 13:15:15;;;;;;;12.15;2.42;;;16.50;99.90;;;;;;4992415;28;20038;-46
2022/05/27 13:17:49;;;;;;;21.73;3.97;;;14.90;99.90;;;;;;5008023;28;20074;-43
2022/05/27 13:20:20;;;;;;;9.95;2.30;;;14.90;99.90;;;;;;4992429;28;20080;-47
2022/05/27 13:23:03;;;;;;;19.55;3.63;;;15.10;99.90;;;;;;4992409;28;20616;-44
2022/05/27 13:25:36;;;;;;;14.25;4.03;;;15.00;99.90;;;;;;4991310;28;20527;-45
2022/05/27 13:28:08;;;;;;;18.20;2.83;;;13.10;99.90;;;;;;4992100;28;20046;-46
2022/05/27 13:30:56;;;;;;;;;;;15.30;99.90;;;;;;4991838;28;20676;-50
2022/05/27 13:33:31;;;;;;;14.43;2.90;;;15.30;99.90;;;;;;4992251;28;19925;-46
2022/05/27 13:36:01;;;;;;;19.33;3.13;;;15.70;99.90;;;;;;5016793;28;20215;-44
2022/05/27 13:38:33;;;;;;;20.70;3.28;;;15.00;99.90;;;;;;5051761;28;20050;-50
2022/05/27 13:40:58;;;;;;;;;;;15.00;99.90;;;;;;5054437;28;20520;-43
2022/05/27 13:43:39;;;;;;;14.18;3.97;;;15.90;99.90;;;;;;5056094;28;19924;-45
2022/05/27 13:46:18;;;;;;;16.55;3.55;;;14.70;99.90;;;;;;5054242;28;20150;-45